Time;durP1;ratioP1;P1;durP2;ratioP2;P2;SDS_P1;SDS_P2;PMS_P1;PMS_P2;Temp;Humidity;BMP_temperature;BMP_pressure;BME280_temperature;BME280_humidity;BME280_pressure;Samples;Min_cycle;Max_cycle;Signal;HPM_P1;HPM_P2
2022/04/23 00:00:57;;;;;;;20.98;16.63;;;11.90;57.00;;;8.06;73.45;93957.72;5050731;28;20073;-50
2022/04/23 00:03:24;;;;;;;23.77;18.08;;;11.90;57.10;;;8.05;73.67;93955.34;5032173;28;20041;-51
2022/04/23 00:05:53;;;;;;;22.73;18.17;;;11.90;57.10;;;8.06;73.45;93960.38;5048818;28;20033;-55
2022/04/23 00:08:21;;;;;;;24.00;17.40;;;11.80;57.00;;;7.97;73.84;93956.78;5048845;28;20028;-50
2022/04/23 00:10:49;;;;;;;28.73;17.52;;;11.80;57.10;;;7.95;73.97;93952.84;5032292;28;20042;-49
2022/04/23 00:13:18;;;;;;;22.38;17.58;;;11.80;57.10;;;7.92;74.25;93959.50;5050761;28;20373;-50
2022/04/23 00:15:44;;;;;;;22.92;16.83;;;11.80;57.20;;;7.87;74.40;93959.59;5036658;28;20057;-54
2022/04/23 00:18:13;;;;;;;23.38;17.42;;;11.80;57.20;;;7.83;74.62;93956.72;5045161;28;20107;-55
2022/04/23 00:20:39;;;;;;;24.77;16.67;;;11.70;57.30;;;7.83;74.85;93966.50;5036626;28;20033;-49
2022/04/23 00:23:07;;;;;;;24.13;18.25;;;11.70;57.40;;;7.79;74.73;93958.34;5033088;28;20387;-50
2022/04/23 00:25:37;;;;;;;23.92;17.25;;;11.70;57.50;;;7.79;74.69;93953.03;5031921;28;20036;-51
2022/04/23 00:28:03;;;;;;;24.05;17.88;;;11.70;57.50;;;7.75;74.78;93959.22;5041715;28;20061;-52
2022/04/23 00:30:33;;;;;;;23.73;17.95;;;11.70;57.40;;;7.71;75.12;93964.31;5047563;28;20055;-49
2022/04/23 00:33:03;;;;;;;24.58;17.13;;;11.70;57.50;;;7.66;75.12;93959.06;5050253;28;20033;-55
2022/04/23 00:35:29;;;;;;;24.40;17.17;;;11.60;57.50;;;7.64;75.25;93967.28;5024780;28;20105;-54
2022/04/23 00:38:01;;;;;;;24.30;18.80;;;11.60;57.50;;;7.65;75.38;93960.13;5047999;28;20036;-49
2022/04/23 00:40:27;;;;;;;23.00;17.38;;;11.60;57.60;;;7.62;75.44;93964.16;5036201;28;20041;-49
2022/04/23 00:42:57;;;;;;;21.52;16.80;;;11.60;57.60;;;7.60;75.70;93963.63;5053613;28;20052;-49
2022/04/23 00:45:25;;;;;;;21.25;16.40;;;11.60;57.70;;;7.54;75.56;93948.88;5036072;28;20044;-49
2022/04/23 00:47:52;;;;;;;23.40;17.75;;;11.60;57.80;;;7.63;75.43;93951.69;5035655;28;20064;-49
2022/04/23 00:50:22;;;;;;;23.90;16.13;;;11.60;57.90;;;7.74;75.23;93952.31;5035704;28;20511;-49
2022/04/23 00:52:57;;;;;;;19.55;15.50;;;11.60;58.00;;;7.84;74.82;93949.56;5035664;28;20037;-49
2022/04/23 00:55:27;;;;;;;22.52;16.73;;;11.70;58.20;;;7.92;74.27;93940.94;5035482;28;20391;-52
2022/04/23 00:57:56;;;;;;;21.88;15.75;;;11.80;58.20;;;8.09;74.09;93951.06;5006247;28;20037;-54
2022/04/23 01:00:22;;;;;;;23.10;16.33;;;11.90;58.20;;;8.20;73.92;93949.00;5011844;28;20093;-49
2022/04/23 01:02:48;;;;;;;21.88;15.52;;;11.90;58.10;;;8.25;73.56;93954.25;5049936;28;20075;-56
2022/04/23 01:05:14;;;;;;;19.58;15.82;;;12.00;58.10;;;8.26;73.54;93955.81;5053073;28;20517;-49
2022/04/23 01:07:44;;;;;;;19.38;15.10;;;12.00;57.90;;;8.27;73.30;93955.56;5018791;28;20064;-50
2022/04/23 01:10:13;;;;;;;19.38;15.77;;;12.10;58.00;;;8.28;73.27;93951.81;5035235;28;20427;-52
2022/04/23 01:12:39;;;;;;;22.98;15.20;;;12.10;57.80;;;8.31;72.82;93947.78;5035907;28;20486;-53
2022/04/23 01:15:07;;;;;;;19.67;15.60;;;12.20;57.80;;;8.33;72.67;93940.31;5050381;28;20057;-51
2022/04/23 01:17:33;;;;;;;20.00;15.13;;;12.20;57.80;;;8.42;72.48;93954.53;5053447;23;20439;-51
2022/04/23 01:20:05;;;;;;;20.23;15.32;;;12.20;57.70;;;8.45;72.62;93942.56;5021598;28;20049;-50
2022/04/23 01:22:37;;;;;;;19.63;14.52;;;12.30;57.60;;;8.46;72.54;93944.13;5014521;28;20075;-50
2022/04/23 01:25:13;;;;;;;21.80;15.30;;;12.30;57.60;;;8.48;72.32;93934.00;5015408;28;20033;-51
2022/04/23 01:27:40;;;;;;;20.38;14.95;;;12.40;57.70;;;8.51;72.19;93936.09;5038661;28;20400;-50
2022/04/23 01:30:10;;;;;;;18.13;13.90;;;12.40;57.60;;;8.54;72.14;93938.94;5056771;28;20047;-47
2022/04/23 01:32:36;;;;;;;18.05;14.15;;;12.40;57.50;;;8.56;72.01;93936.00;5054752;28;20061;-48
2022/04/23 01:35:03;;;;;;;19.00;14.27;;;12.40;57.40;;;8.56;71.84;93939.44;5050025;28;20060;-49
2022/04/23 01:37:29;;;;;;;21.25;15.10;;;12.50;57.40;;;8.57;71.88;93945.53;5032348;28;20057;-52
2022/04/23 01:39:57;;;;;;;20.90;14.65;;;12.50;57.40;;;8.57;71.52;93941.00;5052390;28;20025;-51
2022/04/23 01:42:23;;;;;;;18.85;14.32;;;12.50;57.30;;;8.55;71.68;93937.88;5030989;28;20374;-48
2022/04/23 01:44:52;;;;;;;18.95;14.13;;;12.40;57.20;;;8.52;71.86;93938.47;5030328;28;20111;-48
2022/04/23 01:47:21;;;;;;;19.25;14.48;;;12.40;57.20;;;8.47;71.94;93935.09;5051736;28;20037;-55
2022/04/23 01:49:47;;;;;;;18.63;14.35;;;12.40;57.10;;;8.38;72.01;93942.13;5028744;28;20056;-50
2022/04/23 01:52:13;;;;;;;19.73;14.35;;;12.40;57.10;;;8.35;72.21;93936.31;5045321;28;20435;-48
2022/04/23 01:54:40;;;;;;;21.85;14.13;;;12.30;57.20;;;8.33;72.26;93943.75;5033897;28;20033;-50
2022/04/23 01:57:06;;;;;;;18.73;14.43;;;12.30;57.20;;;8.27;72.59;93942.28;5034008;28;20033;-49
2022/04/23 01:59:34;;;;;;;18.42;13.93;;;12.20;57.20;;;8.17;73.02;93939.78;5052484;28;20465;-50
2022/04/23 02:02:00;;;;;;;18.80;13.95;;;12.20;57.30;;;8.08;73.48;93936.19;5032080;28;20033;-49
2022/04/23 02:04:29;;;;;;;20.45;14.05;;;12.10;57.40;;;8.06;73.66;93935.72;5034049;28;20131;-49
2022/04/23 02:06:55;;;;;;;19.10;14.48;;;12.10;57.60;;;8.02;73.79;93932.03;5030853;28;20034;-50
2022/04/23 02:09:30;;;;;;;17.73;14.07;;;12.10;57.80;;;8.01;73.55;93928.59;5014638;28;20049;-50
2022/04/23 02:11:56;;;;;;;19.63;14.30;;;12.00;57.70;;;8.01;73.74;93941.88;5031557;28;20495;-50
2022/04/23 02:14:25;;;;;;;20.55;14.80;;;12.00;57.80;;;7.98;73.90;93939.00;5049540;28;20060;-51
2022/04/23 02:16:51;;;;;;;21.23;15.30;;;12.00;57.80;;;7.95;74.02;93936.94;5049518;28;20044;-49
2022/04/23 02:19:17;;;;;;;22.20;15.13;;;11.90;57.70;;;7.89;74.28;93941.50;5033921;28;20526;-48
2022/04/23 02:21:44;;;;;;;20.70;15.25;;;11.90;57.70;;;7.81;74.74;93936.88;5051340;28;20045;-52
2022/04/23 02:24:10;;;;;;;24.02;15.73;;;11.90;58.30;;;7.71;74.94;93924.53;5048714;28;20037;-50
2022/04/23 02:26:36;;;;;;;21.70;15.75;;;11.80;57.70;;;7.69;75.27;93925.91;5051908;28;20032;-49
2022/04/23 02:29:02;;;;;;;19.88;15.20;;;11.80;57.80;;;7.67;75.25;93928.03;5030545;28;20052;-49
2022/04/23 02:31:31;;;;;;;22.83;15.48;;;11.70;57.80;;;7.60;75.49;93923.09;5028111;28;20032;-50
2022/04/23 02:34:00;;;;;;;24.55;16.33;;;11.70;57.90;;;7.55;75.71;93923.97;5029917;28;20041;-49
2022/04/23 02:36:28;;;;;;;21.55;15.75;;;11.70;58.00;;;7.48;76.18;93923.50;5046524;28;20025;-51
2022/04/23 02:39:01;;;;;;;21.00;16.02;;;11.60;58.00;;;7.40;76.42;93932.91;5051422;28;20037;-50
2022/04/23 02:41:30;;;;;;;25.48;17.42;;;11.60;58.10;;;7.33;76.21;93935.09;5049160;28;20052;-50
2022/04/23 02:43:57;;;;;;;21.83;15.95;;;11.50;58.10;;;7.29;76.98;93931.44;5027473;28;20070;-52
2022/04/23 02:46:24;;;;;;;21.67;16.13;;;11.40;58.20;;;7.29;76.89;93935.94;5028890;28;20083;-53
2022/04/23 02:48:50;;;;;;;21.23;15.48;;;11.40;58.30;;;7.22;77.09;93924.91;5051193;28;20029;-54
2022/04/23 02:51:16;;;;;;;19.08;15.27;;;11.40;58.40;;;7.28;77.06;93931.72;5018339;28;20068;-50
2022/04/23 02:53:45;;;;;;;19.02;15.52;;;11.40;58.70;;;7.35;76.67;93932.94;5030108;28;20120;-51
2022/04/23 02:56:16;;;;;;;23.17;15.60;;;11.30;59.00;;;7.41;76.44;93931.81;5048779;28;20075;-53
2022/04/23 02:58:43;;;;;;;21.25;15.60;;;11.40;59.00;;;7.43;76.24;93926.25;5033353;28;20037;-49
2022/04/23 03:01:10;;;;;;;20.88;15.85;;;11.40;59.10;;;7.46;76.22;93925.69;5051192;28;20086;-52
2022/04/23 03:03:43;;;;;;;22.05;15.98;;;11.40;59.30;;;7.47;76.14;93921.94;5029950;28;20044;-50
2022/04/23 03:06:09;;;;;;;19.92;15.02;;;11.40;59.50;;;7.48;75.96;93922.72;5032308;28;20037;-53
2022/04/23 03:08:41;;;;;;;18.70;14.55;;;11.40;59.40;;;7.45;75.88;93908.19;5032892;28;20037;-51
2022/04/23 03:11:07;;;;;;;22.58;16.60;;;11.40;59.50;;;7.41;76.20;93907.97;5049692;28;20083;-54
2022/04/23 03:13:35;;;;;;;21.45;16.85;;;11.40;59.60;;;7.44;75.97;93906.63;5050767;28;20064;-52
2022/04/23 03:16:02;;;;;;;25.60;16.88;;;11.40;59.70;;;7.47;75.91;93908.69;5032769;28;20045;-49
2022/04/23 03:18:31;;;;;;;21.27;16.17;;;11.50;59.70;;;7.51;75.70;93912.34;5032782;28;20423;-48
2022/04/23 03:20:58;;;;;;;22.83;17.30;;;11.50;59.70;;;7.52;75.50;93913.94;5012918;28;20071;-49
2022/04/23 03:23:24;;;;;;;23.27;16.17;;;11.50;59.50;;;7.49;75.49;93914.50;5013766;28;20420;-53
2022/04/23 03:25:49;;;;;;;20.63;16.02;;;11.50;59.40;;;7.41;75.84;93910.63;4990743;28;20034;-50
2022/04/23 03:28:18;;;;;;;21.67;16.88;;;11.40;59.20;;;7.34;76.06;93920.00;5011006;28;20048;-48
2022/04/23 03:30:44;;;;;;;23.60;16.75;;;11.40;59.20;;;7.26;76.58;93923.25;5010402;28;20069;-50
2022/04/23 03:33:10;;;;;;;25.45;17.40;;;11.30;59.20;;;7.16;76.92;93917.00;5011105;28;20054;-53
2022/04/23 03:35:38;;;;;;;22.40;16.85;;;11.30;59.10;;;7.09;77.23;93916.59;5039796;28;20102;-50
2022/04/23 03:38:04;;;;;;;24.73;18.15;;;11.20;59.10;;;7.03;77.46;93912.41;5048388;28;20053;-48
2022/04/23 03:40:30;;;;;;;23.48;16.10;;;11.20;59.20;;;6.94;77.47;93904.28;5030113;28;20112;-48
2022/04/23 03:42:57;;;;;;;25.83;17.33;;;11.10;59.40;;;6.87;78.10;93906.50;5048744;28;20064;-48
2022/04/23 03:45:31;;;;;;;21.88;17.25;;;11.00;59.60;;;6.83;78.26;93902.03;5030025;28;20048;-48
2022/04/23 03:47:57;;;;;;;23.48;17.13;;;11.00;59.80;;;6.86;77.83;93906.78;5030206;28;20037;-53
2022/04/23 03:50:22;;;;;;;24.00;18.02;;;10.90;60.00;;;6.89;77.80;93912.31;5049573;28;20529;-49
2022/04/23 03:52:51;;;;;;;23.85;17.50;;;10.90;60.00;;;6.89;77.95;93914.97;5050078;28;20029;-53
2022/04/23 03:55:17;;;;;;;23.80;17.33;;;10.90;60.20;;;6.89;77.77;93914.16;5050391;28;20108;-56
2022/04/23 03:57:51;;;;;;;24.15;17.25;;;10.90;60.20;;;6.84;78.16;93907.06;5030047;28;20526;-51
2022/04/23 04:00:22;;;;;;;28.42;19.40;;;10.90;60.50;;;6.89;77.82;93900.91;5028858;28;20187;-53
2022/04/23 04:02:49;;;;;;;25.35;17.88;;;10.90;60.70;;;6.90;77.81;93908.59;5024334;28;20052;-52
2022/04/23 04:05:16;;;;;;;25.40;18.70;;;10.90;61.00;;;6.93;77.70;93901.94;5028903;28;20041;-55
2022/04/23 04:07:44;;;;;;;23.27;18.05;;;10.90;61.00;;;6.90;77.45;93895.34;5024398;28;20040;-50
2022/04/23 04:10:12;;;;;;;24.65;18.80;;;11.00;61.00;;;6.93;77.62;93908.03;5030436;28;20040;-51
2022/04/23 04:12:38;;;;;;;26.08;19.48;;;11.00;61.00;;;6.90;77.76;93897.22;5054543;28;20120;-50
2022/04/23 04:15:10;;;;;;;23.48;17.55;;;10.90;61.00;;;6.89;77.77;93900.91;5036418;28;20436;-47
2022/04/23 04:17:37;;;;;;;26.17;19.33;;;11.00;61.50;;;6.96;77.56;93896.09;5054447;28;20045;-53
2022/04/23 04:20:07;;;;;;;27.33;18.13;;;11.00;61.50;;;6.95;77.54;93897.91;5035376;28;20033;-49
2022/04/23 04:22:35;;;;;;;25.20;18.52;;;11.00;61.40;;;6.96;77.31;93904.03;5033881;28;20432;-51
2022/04/23 04:25:04;;;;;;;25.88;18.38;;;11.00;61.40;;;7.01;77.34;93914.53;5036326;28;20040;-52
2022/04/23 04:27:34;;;;;;;23.40;17.85;;;11.00;61.30;;;6.97;77.12;93913.53;5034576;28;20049;-48
2022/04/23 04:30:07;;;;;;;24.02;17.95;;;11.00;61.20;;;7.01;77.07;93919.84;5019153;28;20048;-50
2022/04/23 04:32:33;;;;;;;24.88;18.48;;;11.00;61.00;;;6.97;77.45;93924.13;5032547;28;20042;-48
2022/04/23 04:34:59;;;;;;;22.10;17.23;;;11.00;60.90;;;6.92;77.63;93927.59;5029566;28;20033;-49
2022/04/23 04:37:52;;;;;;;22.67;18.20;;;11.00;61.10;;;6.92;77.63;93918.88;5037938;28;20048;-48
2022/04/23 04:40:18;;;;;;;25.40;19.55;;;11.10;61.30;;;6.88;77.97;93923.16;5053574;28;20127;-50
2022/04/23 04:42:44;;;;;;;24.17;18.52;;;11.00;61.40;;;6.86;78.29;93920.00;5053601;28;20067;-53
2022/04/23 04:45:10;;;;;;;27.77;19.23;;;11.00;61.60;;;6.86;78.16;93909.41;5051670;28;20063;-51
2022/04/23 04:47:35;;;;;;;25.77;19.77;;;11.10;61.80;;;6.87;78.19;93919.75;5053946;28;20056;-48
2022/04/23 04:50:02;;;;;;;27.58;20.38;;;11.10;61.90;;;6.89;78.06;93907.03;5053391;28;20069;-49
2022/04/23 04:52:31;;;;;;;23.20;18.38;;;11.10;61.90;;;6.88;78.36;93913.38;5034650;28;20041;-49
2022/04/23 04:54:59;;;;;;;26.30;19.38;;;11.20;61.90;;;6.88;78.09;93902.78;5032316;28;20022;-48
2022/04/23 04:57:36;;;;;;;21.65;16.02;;;11.20;61.80;;;6.87;78.22;93903.84;5049666;28;20075;-47
2022/04/23 05:00:04;;;;;;;25.30;19.80;;;11.20;61.80;;;6.85;78.67;93907.84;5032301;28;20124;-48
2022/04/23 05:02:45;;;;;;;28.42;19.10;;;11.20;61.80;;;6.88;78.50;93917.88;5033379;28;20048;-48
2022/04/23 05:05:11;;;;;;;24.52;18.25;;;11.20;61.90;;;6.87;78.64;93913.66;5052807;28;20072;-51
2022/04/23 05:07:37;;;;;;;28.73;18.90;;;11.20;61.80;;;6.88;78.53;93910.72;5032320;28;20068;-48
2022/04/23 05:10:03;;;;;;;27.80;20.70;;;11.30;61.90;;;6.90;78.70;93913.88;5050237;28;20053;-49
2022/04/23 05:12:32;;;;;;;25.75;19.85;;;11.30;61.80;;;6.93;78.78;93915.97;5053182;28;20033;-50
2022/04/23 05:14:57;;;;;;;26.08;18.63;;;11.30;61.90;;;6.94;78.60;93916.75;5036494;28;20075;-52
2022/04/23 05:17:23;;;;;;;27.40;21.33;;;11.30;61.80;;;6.94;78.47;93919.41;5032906;28;20450;-53
2022/04/23 05:19:49;;;;;;;26.40;20.48;;;11.40;61.80;;;6.93;78.53;93908.03;5052767;28;20037;-49
2022/04/23 05:22:15;;;;;;;26.58;20.77;;;11.50;61.90;;;7.01;78.36;93917.19;5030164;28;20120;-48
2022/04/23 05:24:40;;;;;;;27.40;20.70;;;11.50;61.80;;;7.04;78.17;93919.28;4981682;28;20092;-52
2022/04/23 05:27:09;;;;;;;26.63;21.08;;;11.60;61.70;;;7.05;78.06;93925.34;5011528;28;20120;-51
2022/04/23 05:29:36;;;;;;;27.85;20.55;;;11.70;61.70;;;7.05;77.82;93930.66;5011483;28;20030;-50
2022/04/23 05:32:04;;;;;;;27.00;21.17;;;11.70;61.60;;;7.08;78.17;93938.84;5013412;28;20042;-49
2022/04/23 05:34:31;;;;;;;30.15;21.38;;;11.70;62.10;;;7.09;77.84;93935.13;5013276;28;20080;-48
2022/04/23 05:36:57;;;;;;;29.33;20.90;;;11.80;61.20;;;7.11;78.04;93935.63;5012752;28;20049;-49
2022/04/23 05:39:23;;;;;;;27.58;21.50;;;11.90;61.20;;;7.19;77.94;93936.84;5012524;28;20046;-53
2022/04/23 05:41:48;;;;;;;29.30;19.65;;;11.90;60.90;;;7.25;77.61;93938.38;5005308;28;20049;-51
2022/04/23 05:44:14;;;;;;;29.38;21.08;;;12.00;60.90;;;7.30;77.36;93938.31;5013549;28;20038;-55
2022/04/23 05:46:40;;;;;;;28.00;21.52;;;12.10;60.70;;;7.31;77.52;93939.09;5011631;28;20044;-48
2022/04/23 05:49:05;;;;;;;26.23;19.63;;;12.10;60.60;;;7.36;77.40;93946.97;5027245;28;20060;-48
2022/04/23 05:51:34;;;;;;;30.42;21.08;;;12.20;60.40;;;7.40;77.16;93946.13;5030241;28;20426;-48
2022/04/23 05:54:00;;;;;;;27.02;19.88;;;12.30;60.40;;;7.45;77.22;93947.91;5024037;28;20061;-48
2022/04/23 05:56:25;;;;;;;25.75;20.40;;;12.30;60.30;;;7.47;76.96;93943.13;5029308;28;20496;-49
2022/04/23 05:58:51;;;;;;;26.98;21.20;;;12.40;60.10;;;7.45;77.02;93939.97;5008916;28;20026;-50
2022/04/23 06:01:17;;;;;;;26.42;19.40;;;12.40;60.00;;;7.45;77.31;93937.31;5026050;28;20036;-52
2022/04/23 06:03:51;;;;;;;26.25;20.65;;;12.40;60.00;;;7.53;77.04;93944.66;5031510;28;20496;-48
2022/04/23 06:06:17;;;;;;;25.92;20.02;;;12.50;59.90;;;7.50;77.10;93947.88;5028726;28;20080;-50
2022/04/23 06:08:42;;;;;;;27.10;20.17;;;12.40;59.80;;;7.54;77.05;93951.50;5014488;28;20037;-53
2022/04/23 06:11:08;;;;;;;30.00;20.58;;;12.50;59.80;;;7.57;77.06;93955.47;5001571;28;20501;-51
2022/04/23 06:13:34;;;;;;;28.15;21.33;;;12.60;59.60;;;7.64;76.49;93953.25;5002284;28;20042;-49
2022/04/23 06:16:00;;;;;;;28.25;21.77;;;12.60;59.60;;;7.60;76.51;93952.25;5003399;28;20061;-51
2022/04/23 06:18:25;;;;;;;27.35;21.73;;;12.60;59.50;;;7.65;76.63;93963.56;5002929;28;20033;-51
2022/04/23 06:20:51;;;;;;;25.98;19.20;;;12.70;59.40;;;7.68;76.52;93956.09;5003106;28;20033;-51
2022/04/23 06:23:17;;;;;;;27.05;19.92;;;12.70;59.40;;;7.68;76.60;93964.88;4996841;28;20120;-51
2022/04/23 06:25:43;;;;;;;26.30;20.42;;;12.80;59.20;;;7.79;76.42;93962.88;5008433;28;20046;-54
2022/04/23 06:28:10;;;;;;;32.50;22.75;;;12.80;59.10;;;7.79;76.49;93963.66;5008962;28;20042;-54
2022/04/23 06:30:38;;;;;;;27.60;21.17;;;12.90;59.20;;;7.87;76.16;93957.72;5010529;28;20488;-53
2022/04/23 06:33:05;;;;;;;26.10;21.13;;;12.90;59.00;;;7.95;76.38;93960.78;5008141;28;20064;-48
2022/04/23 06:35:31;;;;;;;27.83;20.45;;;13.00;59.00;;;8.04;75.81;93957.19;5008085;28;20029;-49
2022/04/23 06:37:57;;;;;;;25.42;19.15;;;13.10;58.90;;;8.12;75.61;93955.78;5013363;28;20034;-51
2022/04/23 06:40:23;;;;;;;24.63;19.13;;;13.10;58.80;;;8.13;75.48;93959.22;4996523;28;20042;-49
2022/04/23 06:42:52;;;;;;;27.40;21.55;;;13.20;58.70;;;8.14;75.62;93966.09;5001715;28;20042;-52
2022/04/23 06:45:19;;;;;;;27.63;21.15;;;13.30;58.60;;;8.13;75.67;93972.47;5010268;28;20072;-49
2022/04/23 06:47:45;;;;;;;26.42;20.70;;;13.30;58.40;;;8.01;75.90;93973.69;5001428;28;20066;-56
2022/04/23 06:50:13;;;;;;;27.42;21.60;;;13.40;58.30;;;8.09;75.73;93967.75;4976448;28;20079;-52
2022/04/23 06:52:39;;;;;;;29.35;22.05;;;13.40;58.30;;;8.17;76.01;93970.81;5010548;28;20113;-53
2022/04/23 06:55:06;;;;;;;26.25;20.08;;;13.40;58.20;;;8.22;75.68;93973.41;5028173;28;20167;-50
2022/04/23 06:57:31;;;;;;;32.22;24.75;;;13.40;58.20;;;8.21;75.98;93971.81;5021904;28;20438;-53
2022/04/23 07:00:03;;;;;;;32.33;23.27;;;13.50;58.30;;;8.15;76.47;93965.00;5028414;28;20041;-52
2022/04/23 07:02:28;;;;;;;29.95;22.95;;;13.50;58.20;;;8.08;76.72;93968.81;5016511;28;20376;-49
2022/04/23 07:04:54;;;;;;;32.28;24.08;;;13.50;58.20;;;8.11;76.73;93965.56;5011294;28;20038;-51
2022/04/23 07:07:23;;;;;;;34.67;25.00;;;13.50;58.30;;;8.13;76.81;93967.94;5010253;28;20045;-52
2022/04/23 07:09:51;;;;;;;33.95;25.73;;;13.50;58.40;;;8.14;77.15;93969.53;5009257;28;20065;-56
2022/04/23 07:12:23;;;;;;;31.52;24.42;;;13.50;58.40;;;8.20;76.95;93971.03;5038410;28;20048;-51
2022/04/23 07:14:49;;;;;;;35.05;24.85;;;13.60;58.60;;;8.32;76.69;93960.75;5028225;28;20041;-51
2022/04/23 07:17:15;;;;;;;31.30;24.73;;;13.60;58.50;;;8.37;76.56;93962.56;5049401;28;20044;-56
2022/04/23 07:19:41;;;;;;;37.83;28.60;;;13.60;58.50;;;8.28;77.05;93959.75;5048902;28;20499;-53
2022/04/23 07:22:08;;;;;;;32.70;25.13;;;13.70;58.40;;;8.36;76.77;93950.34;5030849;28;20041;-55
2022/04/23 07:24:37;;;;;;;33.05;25.55;;;13.80;58.40;;;8.27;77.02;93950.25;5013493;28;20057;-49
2022/04/23 07:27:11;;;;;;;31.73;24.88;;;13.90;58.20;;;8.43;76.85;93961.44;5011146;28;20688;-52
2022/04/23 07:29:37;;;;;;;30.35;23.77;;;14.00;58.10;;;8.44;76.84;93963.00;5042129;28;20064;-52
2022/04/23 07:32:04;;;;;;;32.15;24.45;;;14.10;58.00;;;8.52;76.61;93958.88;5050656;28;20030;-49
2022/04/23 07:37:35;;;;;;;33.50;25.85;;;14.40;57.50;;;8.61;76.70;93953.69;5050645;28;20047;-51
2022/04/23 07:40:10;;;;;;;34.70;23.80;;;14.50;57.30;;;8.67;76.21;93950.66;5050322;28;20135;-53
2022/04/23 07:42:36;;;;;;;30.65;24.85;;;14.60;57.10;;;8.71;75.59;93959.63;5049508;28;20128;-52
2022/04/23 07:45:04;;;;;;;31.33;26.30;;;14.70;56.90;;;8.62;75.86;93956.06;5050012;28;20133;-53
2022/04/23 07:47:30;;;;;;;34.80;26.83;;;14.80;56.60;;;8.79;76.07;93953.63;5032502;28;20041;-52
2022/04/23 07:49:56;;;;;;;28.98;23.45;;;14.80;56.60;;;8.92;75.39;93968.03;5047088;28;20415;-50
2022/04/23 07:52:22;;;;;;;33.03;24.70;;;14.90;56.40;;;9.09;74.77;93977.28;5048194;28;20587;-55
2022/04/23 07:54:54;;;;;;;31.13;24.10;;;14.90;56.40;;;9.22;74.03;93984.50;5031850;28;20040;-54
2022/04/23 07:57:26;;;;;;;28.93;23.33;;;15.00;56.50;;;9.36;73.41;93987.94;5032555;28;20060;-52
2022/04/23 07:59:51;;;;;;;29.55;23.15;;;15.00;56.40;;;9.33;73.76;93980.56;5046126;28;20087;-55
2022/04/23 08:02:17;;;;;;;30.08;24.38;;;15.10;56.20;;;9.31;74.12;93984.56;5050379;28;20068;-54
2022/04/23 08:04:46;;;;;;;30.30;24.23;;;15.10;56.00;;;9.43;73.51;93980.38;5050048;28;20036;-49
2022/04/23 08:07:15;;;;;;;30.08;24.65;;;15.20;56.00;;;9.31;74.09;93972.09;5016467;28;20067;-50
2022/04/23 08:09:47;;;;;;;31.00;24.48;;;15.30;55.80;;;9.32;73.79;93976.31;5031400;28;20033;-52
2022/04/23 08:12:12;;;;;;;31.73;24.40;;;15.30;55.50;;;9.43;73.29;93990.19;5042752;28;20120;-55
2022/04/23 08:14:42;;;;;;;28.83;23.80;;;15.40;55.50;;;9.52;72.87;93990.28;5049763;28;20112;-54
2022/04/23 08:17:13;;;;;;;28.17;22.50;;;15.40;55.20;;;9.50;73.52;94002.03;5050183;28;20132;-55
2022/04/23 08:19:42;;;;;;;28.88;23.80;;;15.50;55.20;;;9.47;73.00;94004.50;5031541;28;20060;-54
2022/04/23 08:22:11;;;;;;;28.65;22.73;;;15.50;55.10;;;9.64;73.29;93995.91;5031620;28;20084;-51
2022/04/23 08:24:38;;;;;;;30.13;23.35;;;15.60;55.00;;;9.73;72.02;93989.59;5050368;28;20041;-54
2022/04/23 08:27:04;;;;;;;30.42;24.38;;;15.70;55.00;;;9.70;72.58;93989.41;5049660;28;20048;-53
2022/04/23 08:32:06;;;;;;;28.80;22.30;;;15.80;54.60;;;9.76;71.76;93990.88;5039783;28;20581;-51
2022/04/23 08:34:32;;;;;;;28.52;23.80;;;15.90;54.30;;;9.85;72.02;93988.31;5032235;28;20033;-51
2022/04/23 08:37:00;;;;;;;30.52;21.30;;;16.00;54.10;;;9.91;72.09;93973.81;5044989;28;20139;-50
2022/04/23 08:39:26;;;;;;;27.92;22.73;;;16.10;54.00;;;10.13;71.46;93979.19;5049928;28;20037;-51
2022/04/23 08:41:52;;;;;;;29.88;22.40;;;16.20;53.80;;;10.34;70.68;93981.38;5029669;28;20052;-52
2022/04/23 08:44:21;;;;;;;29.95;22.13;;;16.40;53.60;;;10.45;69.90;93992.59;5049731;28;20029;-53
2022/04/23 08:46:54;;;;;;;31.67;23.05;;;16.60;53.30;;;10.36;69.94;94000.53;5029176;28;20045;-51
2022/04/23 08:49:22;;;;;;;28.05;23.52;;;16.90;52.90;;;10.54;69.82;93996.13;5045780;28;20053;-53
2022/04/23 08:51:55;;;;;;;26.38;22.25;;;17.10;52.30;;;10.67;69.50;93989.16;5048170;28;20073;-51
2022/04/23 08:54:32;;;;;;;27.27;21.90;;;17.30;51.90;;;10.91;69.13;93996.84;5032081;28;20041;-52
2022/04/23 08:57:01;;;;;;;28.65;22.20;;;17.60;51.60;;;10.98;68.50;93992.66;5034813;28;20041;-53
2022/04/23 08:59:26;;;;;;;26.50;21.85;;;17.80;51.20;;;11.12;67.44;93992.53;5016456;28;20049;-56
2022/04/23 09:02:01;;;;;;;26.98;23.23;;;17.90;50.90;;;10.97;68.93;93953.78;5013872;28;20057;-53
2022/04/23 09:04:33;;;;;;;25.67;20.60;;;18.00;50.60;;;11.19;67.59;93971.59;5013453;28;20046;-54
2022/04/23 09:07:01;;;;;;;25.77;21.65;;;18.10;50.30;;;11.40;66.99;94000.38;5030882;28;20037;-53
2022/04/23 09:09:27;;;;;;;28.05;22.63;;;18.20;50.00;;;11.29;67.07;93995.31;5037017;28;20040;-55
2022/04/23 09:11:56;;;;;;;26.15;21.40;;;18.20;49.70;;;11.24;67.72;93986.66;5045149;28;20033;-50
2022/04/23 09:14:29;;;;;;;26.42;21.33;;;18.30;49.60;;;11.41;66.97;94008.06;5017202;28;20064;-58
2022/04/23 09:25:45;;;;;;;25.95;21.63;;;18.20;49.30;;;11.28;67.21;94009.75;5039668;28;20445;-54
2022/04/23 09:28:17;;;;;;;26.67;22.85;;;18.10;49.20;;;11.28;66.88;94014.25;5028331;28;20140;-54
2022/04/23 09:30:48;;;;;;;28.33;21.87;;;18.00;49.20;;;11.11;67.36;94015.75;5032720;28;20049;-56
2022/04/23 09:33:14;;;;;;;26.33;20.88;;;17.90;49.40;;;11.26;67.21;94011.13;5035388;28;20033;-56
2022/04/23 09:36:03;;;;;;;27.42;22.70;;;17.70;49.50;;;11.25;67.02;94004.22;5035301;28;20398;-57
2022/04/23 09:38:30;;;;;;;25.80;21.25;;;17.70;50.40;;;11.35;67.02;94004.75;5034514;28;20709;-52
2022/04/23 09:41:16;;;;;;;29.55;22.02;;;17.60;49.80;;;11.37;66.31;94000.97;5035552;28;20076;-55
2022/04/23 09:43:45;;;;;;;23.42;19.45;;;17.60;49.90;;;11.51;66.29;94005.13;5011852;28;20038;-57
2022/04/23 09:46:13;;;;;;;27.90;20.10;;;17.60;50.00;;;11.51;65.99;94007.00;5050385;28;20057;-54
2022/04/23 09:49:03;;;;;;;24.40;20.65;;;17.70;50.00;;;11.51;66.40;94012.34;5035321;28;20048;-55
2022/04/23 09:51:29;;;;;;;24.60;20.80;;;17.80;49.70;;;11.58;66.22;94020.66;5050328;28;20107;-54
2022/04/23 09:53:55;;;;;;;26.58;20.83;;;18.00;49.60;;;11.67;66.02;94018.81;5052633;28;20037;-55
2022/04/23 09:56:25;;;;;;;23.30;19.45;;;18.20;49.30;;;11.69;65.40;94018.50;5049901;28;20503;-56
2022/04/23 09:59:06;;;;;;;25.67;21.13;;;18.30;49.00;;;11.70;65.62;94015.53;5004523;28;20077;-55
2022/04/23 10:01:35;;;;;;;28.35;21.25;;;18.40;49.30;;;11.85;65.50;94019.69;5032348;28;20033;-56
2022/04/23 10:04:00;;;;;;;24.65;20.33;;;18.50;48.60;;;12.07;65.02;94026.81;5012909;28;20063;-55
2022/04/23 10:06:26;;;;;;;27.40;21.88;;;18.50;48.70;;;11.81;65.39;94027.50;5031854;28;20100;-52
2022/04/23 10:08:57;;;;;;;27.17;20.70;;;18.50;48.40;;;12.08;65.21;94022.25;5029296;28;20041;-51
2022/04/23 10:11:30;;;;;;;24.65;19.80;;;18.60;48.50;;;12.16;64.31;94014.28;5046028;28;20272;-56
2022/04/23 10:14:06;;;;;;;25.73;21.30;;;18.60;48.50;;;12.34;63.33;94015.06;5034177;28;20052;-52
2022/04/23 10:16:36;;;;;;;26.15;19.73;;;18.70;48.30;;;12.38;63.65;94018.69;5034357;28;20033;-55
2022/04/23 10:19:02;;;;;;;25.20;21.20;;;18.80;48.20;;;12.41;63.36;94019.91;5046372;28;20131;-55
2022/04/23 10:22:11;;;;;;;23.77;19.67;;;18.90;48.00;;;12.80;63.13;94019.00;5033944;28;20146;-57
2022/04/23 10:25:25;;;;;;;23.13;19.27;;;19.10;47.90;;;13.12;62.00;94038.28;5052563;28;20041;-58
2022/04/23 10:27:56;;;;;;;23.23;20.25;;;19.40;47.70;;;13.18;61.14;94034.34;5036316;28;20041;-57
2022/04/23 10:30:22;;;;;;;26.02;20.83;;;19.70;47.20;;;13.63;60.84;94028.56;5022932;28;20041;-57